sensor_id;sensor_type;location;lat;lon;timestamp;temperature;humidity
15707;DHT22;7953;54.302;10.128;2023-06-22T00:00:48;17.40;99.90
15707;DHT22;7953;54.302;10.128;2023-06-22T00:03:15;17.30;99.90
15707;DHT22;7953;54.302;10.128;2023-06-22T00:05:42;17.30;99.90
15707;DHT22;7953;54.302;10.128;2023-06-22T00:08:08;17.20;99.90
15707;DHT22;7953;54.302;10.128;2023-06-22T00:10:37;17.10;99.90
15707;DHT22;7953;54.302;10.128;2023-06-22T00:13:04;17.10;99.90
15707;DHT22;7953;54.302;10.128;2023-06-22T00:15:31;17.00;99.90
15707;DHT22;7953;54.302;10.128;2023-06-22T00:17:57;16.90;99.90
15707;DHT22;7953;54.302;10.128;2023-06-22T00:20:24;16.90;99.90
15707;DHT22;7953;54.302;10.128;2023-06-22T00:22:53;16.80;99.90
15707;DHT22;7953;54.302;10.128;2023-06-22T00:25:20;16.80;99.90
15707;DHT22;7953;54.302;10.128;2023-06-22T00:27:49;16.70;99.90
15707;DHT22;7953;54.302;10.128;2023-06-22T00:30:16;16.70;99.90
15707;DHT22;7953;54.302;10.128;2023-06-22T00:32:43;16.70;99.90
15707;DHT22;7953;54.302;10.128;2023-06-22T00:35:12;16.60;99.90
15707;DHT22;7953;54.302;10.128;2023-06-22T00:37:39;16.70;99.90
15707;DHT22;7953;54.302;10.128;2023-06-22T00:40:08;16.60;99.90
15707;DHT22;7953;54.302;10.128;2023-06-22T00:42:37;16.60;99.90
15707;DHT22;7953;54.302;10.128;2023-06-22T00:45:07;16.60;99.90
15707;DHT22;7953;54.302;10.128;2023-06-22T00:47:34;16.50;99.90
15707;DHT22;7953;54.302;10.128;2023-06-22T00:50:03;16.40;99.90
15707;DHT22;7953;54.302;10.128;2023-06-22T00:52:34;16.40;99.90
15707;DHT22;7953;54.302;10.128;2023-06-22T00:55:02;16.30;99.90
15707;DHT22;7953;54.302;10.128;2023-06-22T00:57:29;16.20;99.90
15707;DHT22;7953;54.302;10.128;2023-06-22T00:59:56;16.10;99.90
15707;DHT22;7953;54.302;10.128;2023-06-22T01:02:24;16.10;99.90
15707;DHT22;7953;54.302;10.128;2023-06-22T01:04:52;16.00;99.90
15707;DHT22;7953;54.302;10.128;2023-06-22T01:07:24;16.00;99.90
15707;DHT22;7953;54.302;10.128;2023-06-22T01:09:59;16.00;99.90
15707;DHT22;7953;54.302;10.128;2023-06-22T01:12:32;16.00;99.90
15707;DHT22;7953;54.302;10.128;2023-06-22T01:15:06;15.90;99.90
15707;DHT22;7953;54.302;10.128;2023-06-22T01:17:36;15.90;99.90
15707;DHT22;7953;54.302;10.128;2023-06-22T01:20:08;15.90;99.90
15707;DHT22;7953;54.302;10.128;2023-06-22T01:23:02;15.90;99.90
15707;DHT22;7953;54.302;10.128;2023-06-22T01:25:43;15.90;99.90
15707;DHT22;7953;54.302;10.128;2023-06-22T01:28:20;15.90;99.90
15707;DHT22;7953;54.302;10.128;2023-06-22T01:30:51;15.80;99.90
15707;DHT22;7953;54.302;10.128;2023-06-22T01:33:29;15.80;99.90
15707;DHT22;7953;54.302;10.128;2023-06-22T01:35:57;15.80;99.90
15707;DHT22;7953;54.302;10.128;2023-06-22T01:38:25;15.80;99.90
15707;DHT22;7953;54.302;10.128;2023-06-22T01:40:52;15.80;99.90
15707;DHT22;7953;54.302;10.128;2023-06-22T01:43:21;15.70;99.90
15707;DHT22;7953;54.302;10.128;2023-06-22T01:45:50;15.70;99.90
15707;DHT22;7953;54.302;10.128;2023-06-22T01:48:18;15.70;99.90
15707;DHT22;7953;54.302;10.128;2023-06-22T01:50:46;15.60;99.90
15707;DHT22;7953;54.302;10.128;2023-06-22T01:53:13;15.60;99.90
15707;DHT22;7953;54.302;10.128;2023-06-22T01:55:40;15.60;99.90
15707;DHT22;7953;54.302;10.128;2023-06-22T01:58:07;15.60;99.90
15707;DHT22;7953;54.302;10.128;2023-06-22T02:00:37;15.50;99.90
15707;DHT22;7953;54.302;10.128;2023-06-22T02:03:11;15.60;99.90
15707;DHT22;7953;54.302;10.128;2023-06-22T02:05:46;15.60;99.90
15707;DHT22;7953;54.302;10.128;2023-06-22T02:08:19;15.50;99.90
15707;DHT22;7953;54.302;10.128;2023-06-22T02:10:47;15.50;99.90
15707;DHT22;7953;54.302;10.128;2023-06-22T02:13:16;15.50;99.90
15707;DHT22;7953;54.302;10.128;2023-06-22T02:15:44;15.50;99.90
15707;DHT22;7953;54.302;10.128;2023-06-22T02:18:13;15.50;99.90
15707;DHT22;7953;54.302;10.128;2023-06-22T02:20:40;15.50;99.90
15707;DHT22;7953;54.302;10.128;2023-06-22T02:23:07;15.50;99.90
15707;DHT22;7953;54.302;10.128;2023-06-22T02:25:35;15.40;99.90
15707;DHT22;7953;54.302;10.128;2023-06-22T02:28:02;15.40;99.90
15707;DHT22;7953;54.302;10.128;2023-06-22T02:30:29;15.40;99.90
15707;DHT22;7953;54.302;10.128;2023-06-22T02:32:56;15.40;99.90
15707;DHT22;7953;54.302;10.128;2023-06-22T02:35:26;15.40;99.90
15707;DHT22;7953;54.302;10.128;2023-06-22T02:37:57;15.40;99.90
15707;DHT22;7953;54.302;10.128;2023-06-22T02:40:25;15.40;99.90
15707;DHT22;7953;54.302;10.128;2023-06-22T02:42:52;15.30;99.90
15707;DHT22;7953;54.302;10.128;2023-06-22T02:45:19;15.40;99.90
15707;DHT22;7953;54.302;10.128;2023-06-22T02:47:46;15.30;99.90
15707;DHT22;7953;54.302;10.128;2023-06-22T02:50:13;15.30;99.90
15707;DHT22;7953;54.302;10.128;2023-06-22T02:52:41;15.40;99.90
15707;DHT22;7953;54.302;10.128;2023-06-22T02:55:08;15.30;99.90
15707;DHT22;7953;54.302;10.128;2023-06-22T02:57:35;15.20;99.90
15707;DHT22;7953;54.302;10.128;2023-06-22T03:00:03;15.20;99.90
15707;DHT22;7953;54.302;10.128;2023-06-22T03:02:42;15.20;99.90
15707;DHT22;7953;54.302;10.128;2023-06-22T03:05:09;15.10;99.90
15707;DHT22;7953;54.302;10.128;2023-06-22T03:07:41;15.10;99.90
15707;DHT22;7953;54.302;10.128;2023-06-22T03:10:08;15.10;99.90
15707;DHT22;7953;54.302;10.128;2023-06-22T03:12:36;15.10;99.90
15707;DHT22;7953;54.302;10.128;2023-06-22T03:15:05;15.10;99.90
15707;DHT22;7953;54.302;10.128;2023-06-22T03:17:32;15.20;99.90
15707;DHT22;7953;54.302;10.128;2023-06-22T03:19:59;15.20;99.90
15707;DHT22;7953;54.302;10.128;2023-06-22T03:22:26;15.20;99.90
15707;DHT22;7953;54.302;10.128;2023-06-22T03:24:54;15.20;99.90
15707;DHT22;7953;54.302;10.128;2023-06-22T03:27:21;15.20;99.90
15707;DHT22;7953;54.302;10.128;2023-06-22T03:29:48;15.20;99.90
15707;DHT22;7953;54.302;10.128;2023-06-22T03:32:15;15.30;99.90
15707;DHT22;7953;54.302;10.128;2023-06-22T03:34:42;15.30;99.90
15707;DHT22;7953;54.302;10.128;2023-06-22T03:37:12;15.30;99.90
15707;DHT22;7953;54.302;10.128;2023-06-22T03:39:39;15.40;99.90
15707;DHT22;7953;54.302;10.128;2023-06-22T03:42:08;15.40;99.90
15707;DHT22;7953;54.302;10.128;2023-06-22T03:44:35;15.50;99.90
15707;DHT22;7953;54.302;10.128;2023-06-22T03:47:02;15.50;99.90
15707;DHT22;7953;54.302;10.128;2023-06-22T03:49:29;15.50;99.90
15707;DHT22;7953;54.302;10.128;2023-06-22T03:51:56;15.50;99.90
15707;DHT22;7953;54.302;10.128;2023-06-22T03:54:22;15.60;99.90
15707;DHT22;7953;54.302;10.128;2023-06-22T03:56:49;15.60;99.90
15707;DHT22;7953;54.302;10.128;2023-06-22T03:59:17;15.60;99.90
15707;DHT22;7953;54.302;10.128;2023-06-22T04:01:44;15.60;99.90
15707;DHT22;7953;54.302;10.128;2023-06-22T04:04:12;15.60;99.90
15707;DHT22;7953;54.302;10.128;2023-06-22T04:06:39;15.60;99.90
15707;DHT22;7953;54.302;10.128;2023-06-22T04:09:06;15.60;99.90
15707;DHT22;7953;54.302;10.128;2023-06-22T04:11:32;15.60;99.90
15707;DHT22;7953;54.302;10.128;2023-06-22T04:13:59;15.60;99.90
15707;DHT22;7953;54.302;10.128;2023-06-22T04:16:28;15.60;99.90
15707;DHT22;7953;54.302;10.128;2023-06-22T04:18:55;15.70;99.90
15707;DHT22;7953;54.302;10.128;2023-06-22T04:21:22;15.70;99.90
15707;DHT22;7953;54.302;10.128;2023-06-22T04:23:49;15.70;99.90
15707;DHT22;7953;54.302;10.128;2023-06-22T04:26:15;15.70;99.90
15707;DHT22;7953;54.302;10.128;2023-06-22T04:28:42;15.80;99.90
15707;DHT22;7953;54.302;10.128;2023-06-22T04:31:17;15.80;99.90
15707;DHT22;7953;54.302;10.128;2023-06-22T04:33:45;15.80;99.90
15707;DHT22;7953;54.302;10.128;2023-06-22T04:36:12;15.90;99.90
15707;DHT22;7953;54.302;10.128;2023-06-22T04:38:40;15.90;99.90
15707;DHT22;7953;54.302;10.128;2023-06-22T04:41:07;15.90;99.90
15707;DHT22;7953;54.302;10.128;2023-06-22T04:43:48;16.00;99.90
15707;DHT22;7953;54.302;10.128;2023-06-22T04:46:19;16.00;99.90
15707;DHT22;7953;54.302;10.128;2023-06-22T04:48:47;16.10;99.90
15707;DHT22;7953;54.302;10.128;2023-06-22T04:51:14;16.10;99.90
15707;DHT22;7953;54.302;10.128;2023-06-22T04:53:41;16.20;99.90
15707;DHT22;7953;54.302;10.128;2023-06-22T04:56:08;16.30;99.90
15707;DHT22;7953;54.302;10.128;2023-06-22T04:58:35;16.40;99.90
15707;DHT22;7953;54.302;10.128;2023-06-22T05:01:02;16.50;99.90
15707;DHT22;7953;54.302;10.128;2023-06-22T05:03:29;16.60;99.90
15707;DHT22;7953;54.302;10.128;2023-06-22T05:05:57;16.70;99.90
15707;DHT22;7953;54.302;10.128;2023-06-22T05:08:24;16.80;99.90
15707;DHT22;7953;54.302;10.128;2023-06-22T05:10:54;16.80;99.90
15707;DHT22;7953;54.302;10.128;2023-06-22T05:13:21;16.90;99.90
15707;DHT22;7953;54.302;10.128;2023-06-22T05:15:51;17.00;99.90
15707;DHT22;7953;54.302;10.128;2023-06-22T05:18:22;17.10;99.90
15707;DHT22;7953;54.302;10.128;2023-06-22T05:20:49;17.10;99.90
15707;DHT22;7953;54.302;10.128;2023-06-22T05:23:18;17.20;99.90
15707;DHT22;7953;54.302;10.128;2023-06-22T05:25:45;17.30;99.90
15707;DHT22;7953;54.302;10.128;2023-06-22T05:31:23;17.40;99.90
15707;DHT22;7953;54.302;10.128;2023-06-22T05:33:52;17.40;99.90
15707;DHT22;7953;54.302;10.128;2023-06-22T05:36:19;17.50;99.90
15707;DHT22;7953;54.302;10.128;2023-06-22T05:38:48;17.50;99.90
15707;DHT22;7953;54.302;10.128;2023-06-22T05:41:15;17.50;99.90
15707;DHT22;7953;54.302;10.128;2023-06-22T05:43:41;17.60;99.90
15707;DHT22;7953;54.302;10.128;2023-06-22T05:46:08;17.60;99.90
15707;DHT22;7953;54.302;10.128;2023-06-22T05:48:35;17.70;99.90
15707;DHT22;7953;54.302;10.128;2023-06-22T05:51:02;17.70;99.90
15707;DHT22;7953;54.302;10.128;2023-06-22T05:53:29;17.70;99.90
15707;DHT22;7953;54.302;10.128;2023-06-22T05:55:57;17.80;99.90
15707;DHT22;7953;54.302;10.128;2023-06-22T05:58:24;17.90;99.90
15707;DHT22;7953;54.302;10.128;2023-06-22T06:00:51;17.90;99.90
15707;DHT22;7953;54.302;10.128;2023-06-22T06:03:18;18.00;99.90
15707;DHT22;7953;54.302;10.128;2023-06-22T06:05:45;18.00;99.90
15707;DHT22;7953;54.302;10.128;2023-06-22T06:08:12;18.10;99.90
15707;DHT22;7953;54.302;10.128;2023-06-22T06:10:39;18.20;99.90
15707;DHT22;7953;54.302;10.128;2023-06-22T06:13:07;18.30;99.90
15707;DHT22;7953;54.302;10.128;2023-06-22T06:15:34;18.40;99.90
15707;DHT22;7953;54.302;10.128;2023-06-22T06:18:01;18.50;99.90
15707;DHT22;7953;54.302;10.128;2023-06-22T06:20:30;18.60;99.90
15707;DHT22;7953;54.302;10.128;2023-06-22T06:22:57;18.70;99.90
15707;DHT22;7953;54.302;10.128;2023-06-22T06:25:24;18.80;99.90
15707;DHT22;7953;54.302;10.128;2023-06-22T06:27:52;18.90;99.90
15707;DHT22;7953;54.302;10.128;2023-06-22T06:30:21;19.00;99.90
15707;DHT22;7953;54.302;10.128;2023-06-22T06:32:49;19.10;99.90
15707;DHT22;7953;54.302;10.128;2023-06-22T06:35:16;19.30;99.90
15707;DHT22;7953;54.302;10.128;2023-06-22T06:37:44;19.40;99.90
15707;DHT22;7953;54.302;10.128;2023-06-22T06:40:12;19.60;99.90
15707;DHT22;7953;54.302;10.128;2023-06-22T06:42:41;19.70;99.90
15707;DHT22;7953;54.302;10.128;2023-06-22T06:45:10;19.90;99.90
15707;DHT22;7953;54.302;10.128;2023-06-22T06:47:39;20.20;99.90
15707;DHT22;7953;54.302;10.128;2023-06-22T06:50:06;20.30;99.90
15707;DHT22;7953;54.302;10.128;2023-06-22T06:52:34;20.50;99.90
15707;DHT22;7953;54.302;10.128;2023-06-22T06:55:01;20.60;99.90
15707;DHT22;7953;54.302;10.128;2023-06-22T06:57:29;20.80;99.90
15707;DHT22;7953;54.302;10.128;2023-06-22T06:59:56;20.90;99.90
15707;DHT22;7953;54.302;10.128;2023-06-22T07:02:25;21.00;99.90
15707;DHT22;7953;54.302;10.128;2023-06-22T07:04:54;21.20;99.90
15707;DHT22;7953;54.302;10.128;2023-06-22T07:07:22;21.30;99.90
15707;DHT22;7953;54.302;10.128;2023-06-22T07:09:48;21.50;99.90
15707;DHT22;7953;54.302;10.128;2023-06-22T07:12:15;21.60;99.90
15707;DHT22;7953;54.302;10.128;2023-06-22T07:14:42;21.60;99.90
15707;DHT22;7953;54.302;10.128;2023-06-22T07:17:09;21.70;99.90
15707;DHT22;7953;54.302;10.128;2023-06-22T07:19:36;21.90;99.90
15707;DHT22;7953;54.302;10.128;2023-06-22T07:22:04;22.10;99.90
15707;DHT22;7953;54.302;10.128;2023-06-22T07:24:31;22.10;99.90
15707;DHT22;7953;54.302;10.128;2023-06-22T07:26:59;22.30;99.90
15707;DHT22;7953;54.302;10.128;2023-06-22T07:29:25;22.40;99.90
15707;DHT22;7953;54.302;10.128;2023-06-22T07:31:53;22.50;99.90
15707;DHT22;7953;54.302;10.128;2023-06-22T07:34:22;22.70;99.90
15707;DHT22;7953;54.302;10.128;2023-06-22T07:36:49;22.90;99.90
15707;DHT22;7953;54.302;10.128;2023-06-22T07:39:17;23.10;99.90
15707;DHT22;7953;54.302;10.128;2023-06-22T07:41:44;23.20;99.90
15707;DHT22;7953;54.302;10.128;2023-06-22T07:44:11;23.30;99.90
15707;DHT22;7953;54.302;10.128;2023-06-22T07:46:37;23.50;99.90
15707;DHT22;7953;54.302;10.128;2023-06-22T07:49:04;23.70;99.90
15707;DHT22;7953;54.302;10.128;2023-06-22T07:51:33;23.90;99.90
15707;DHT22;7953;54.302;10.128;2023-06-22T07:54:00;24.00;99.90
15707;DHT22;7953;54.302;10.128;2023-06-22T07:56:28;24.10;99.90
15707;DHT22;7953;54.302;10.128;2023-06-22T07:58:55;24.20;99.90
15707;DHT22;7953;54.302;10.128;2023-06-22T08:01:24;24.50;99.90
15707;DHT22;7953;54.302;10.128;2023-06-22T08:03:51;24.60;99.90
15707;DHT22;7953;54.302;10.128;2023-06-22T08:06:18;24.90;99.90
15707;DHT22;7953;54.302;10.128;2023-06-22T08:08:44;25.00;99.90
15707;DHT22;7953;54.302;10.128;2023-06-22T08:11:13;25.20;99.90
15707;DHT22;7953;54.302;10.128;2023-06-22T08:13:41;25.40;99.90
15707;DHT22;7953;54.302;10.128;2023-06-22T08:16:08;25.60;99.90
15707;DHT22;7953;54.302;10.128;2023-06-22T08:18:36;25.70;99.90
15707;DHT22;7953;54.302;10.128;2023-06-22T08:21:03;25.80;99.90
15707;DHT22;7953;54.302;10.128;2023-06-22T08:23:30;26.00;99.90
15707;DHT22;7953;54.302;10.128;2023-06-22T08:25:57;26.20;99.90
15707;DHT22;7953;54.302;10.128;2023-06-22T08:28:24;26.30;99.90
15707;DHT22;7953;54.302;10.128;2023-06-22T08:30:52;26.60;99.90
15707;DHT22;7953;54.302;10.128;2023-06-22T08:33:21;26.70;99.90
15707;DHT22;7953;54.302;10.128;2023-06-22T08:35:49;26.80;99.90
15707;DHT22;7953;54.302;10.128;2023-06-22T08:38:16;26.90;99.90
15707;DHT22;7953;54.302;10.128;2023-06-22T08:40:44;27.00;99.90
15707;DHT22;7953;54.302;10.128;2023-06-22T08:43:11;26.90;99.90
15707;DHT22;7953;54.302;10.128;2023-06-22T08:45:38;26.70;99.90
15707;DHT22;7953;54.302;10.128;2023-06-22T08:48:06;26.40;99.90
15707;DHT22;7953;54.302;10.128;2023-06-22T08:50:33;26.60;99.90
15707;DHT22;7953;54.302;10.128;2023-06-22T08:53:01;26.70;99.90
15707;DHT22;7953;54.302;10.128;2023-06-22T08:55:28;26.80;99.90
15707;DHT22;7953;54.302;10.128;2023-06-22T08:57:55;26.90;99.90
15707;DHT22;7953;54.302;10.128;2023-06-22T09:00:22;26.90;99.90
15707;DHT22;7953;54.302;10.128;2023-06-22T09:02:49;27.00;99.90
15707;DHT22;7953;54.302;10.128;2023-06-22T09:05:17;27.20;99.90
15707;DHT22;7953;54.302;10.128;2023-06-22T09:07:44;27.30;99.90
15707;DHT22;7953;54.302;10.128;2023-06-22T09:10:11;27.10;99.90
15707;DHT22;7953;54.302;10.128;2023-06-22T09:12:39;27.10;99.90
15707;DHT22;7953;54.302;10.128;2023-06-22T09:15:07;27.30;99.90
15707;DHT22;7953;54.302;10.128;2023-06-22T09:17:34;27.40;99.90
15707;DHT22;7953;54.302;10.128;2023-06-22T09:20:02;27.40;99.90
15707;DHT22;7953;54.302;10.128;2023-06-22T09:22:32;27.40;99.90
15707;DHT22;7953;54.302;10.128;2023-06-22T09:24:59;27.40;99.90
15707;DHT22;7953;54.302;10.128;2023-06-22T09:27:27;27.50;99.90
15707;DHT22;7953;54.302;10.128;2023-06-22T09:29:54;27.60;99.90
15707;DHT22;7953;54.302;10.128;2023-06-22T09:32:21;27.70;99.90
15707;DHT22;7953;54.302;10.128;2023-06-22T09:34:47;27.70;99.90
15707;DHT22;7953;54.302;10.128;2023-06-22T09:37:14;27.80;99.90
15707;DHT22;7953;54.302;10.128;2023-06-22T09:39:43;27.70;99.90
15707;DHT22;7953;54.302;10.128;2023-06-22T09:42:09;27.30;99.90
15707;DHT22;7953;54.302;10.128;2023-06-22T09:44:37;27.10;99.90
15707;DHT22;7953;54.302;10.128;2023-06-22T09:47:04;27.00;99.90
15707;DHT22;7953;54.302;10.128;2023-06-22T09:49:31;27.00;99.90
15707;DHT22;7953;54.302;10.128;2023-06-22T09:51:58;27.20;99.90
15707;DHT22;7953;54.302;10.128;2023-06-22T09:54:26;27.60;99.90
15707;DHT22;7953;54.302;10.128;2023-06-22T09:56:54;27.90;99.90
15707;DHT22;7953;54.302;10.128;2023-06-22T09:59:21;28.00;99.90
15707;DHT22;7953;54.302;10.128;2023-06-22T10:01:47;28.00;99.90
15707;DHT22;7953;54.302;10.128;2023-06-22T10:04:14;27.70;99.90
15707;DHT22;7953;54.302;10.128;2023-06-22T10:06:41;27.40;99.90
15707;DHT22;7953;54.302;10.128;2023-06-22T10:09:08;27.10;99.90
15707;DHT22;7953;54.302;10.128;2023-06-22T10:11:35;27.10;99.90
15707;DHT22;7953;54.302;10.128;2023-06-22T10:14:04;27.00;99.90
15707;DHT22;7953;54.302;10.128;2023-06-22T10:16:31;26.90;99.90
15707;DHT22;7953;54.302;10.128;2023-06-22T10:18:58;27.10;99.90
15707;DHT22;7953;54.302;10.128;2023-06-22T10:21:25;27.40;99.90
15707;DHT22;7953;54.302;10.128;2023-06-22T10:23:52;27.80;99.90
15707;DHT22;7953;54.302;10.128;2023-06-22T10:26:19;28.20;99.90
15707;DHT22;7953;54.302;10.128;2023-06-22T10:28:46;28.70;99.90
15707;DHT22;7953;54.302;10.128;2023-06-22T10:31:14;29.10;99.90
15707;DHT22;7953;54.302;10.128;2023-06-22T10:33:42;29.30;99.90
15707;DHT22;7953;54.302;10.128;2023-06-22T10:36:09;29.50;99.90
15707;DHT22;7953;54.302;10.128;2023-06-22T10:38:36;29.60;99.90
15707;DHT22;7953;54.302;10.128;2023-06-22T10:41:03;29.70;99.90
15707;DHT22;7953;54.302;10.128;2023-06-22T10:43:30;29.80;99.90
15707;DHT22;7953;54.302;10.128;2023-06-22T10:45:57;29.90;99.90
15707;DHT22;7953;54.302;10.128;2023-06-22T10:48:25;30.00;99.90
15707;DHT22;7953;54.302;10.128;2023-06-22T10:50:52;30.20;99.90
15707;DHT22;7953;54.302;10.128;2023-06-22T10:53:20;30.60;99.90
15707;DHT22;7953;54.302;10.128;2023-06-22T10:55:47;30.90;99.90
15707;DHT22;7953;54.302;10.128;2023-06-22T10:58:14;31.20;99.90
15707;DHT22;7953;54.302;10.128;2023-06-22T11:00:40;31.30;99.90
15707;DHT22;7953;54.302;10.128;2023-06-22T11:03:07;31.20;99.90
15707;DHT22;7953;54.302;10.128;2023-06-22T11:05:36;30.90;99.90
15707;DHT22;7953;54.302;10.128;2023-06-22T11:08:03;30.60;99.90
15707;DHT22;7953;54.302;10.128;2023-06-22T11:10:30;30.40;99.90
15707;DHT22;7953;54.302;10.128;2023-06-22T11:12:56;30.20;99.90
15707;DHT22;7953;54.302;10.128;2023-06-22T11:15:23;29.90;99.90
15707;DHT22;7953;54.302;10.128;2023-06-22T11:17:50;29.70;99.90
15707;DHT22;7953;54.302;10.128;2023-06-22T11:20:17;29.60;99.90
15707;DHT22;7953;54.302;10.128;2023-06-22T11:22:46;29.50;99.90
15707;DHT22;7953;54.302;10.128;2023-06-22T11:25:13;29.40;99.90
15707;DHT22;7953;54.302;10.128;2023-06-22T11:27:40;29.30;99.90
15707;DHT22;7953;54.302;10.128;2023-06-22T11:30:08;29.40;99.90
15707;DHT22;7953;54.302;10.128;2023-06-22T11:32:35;29.70;99.90
15707;DHT22;7953;54.302;10.128;2023-06-22T11:35:02;30.10;99.90
15707;DHT22;7953;54.302;10.128;2023-06-22T11:37:29;30.40;99.90
15707;DHT22;7953;54.302;10.128;2023-06-22T11:39:57;30.60;99.90
15707;DHT22;7953;54.302;10.128;2023-06-22T11:42:24;30.60;99.90
15707;DHT22;7953;54.302;10.128;2023-06-22T11:44:51;30.80;99.90
15707;DHT22;7953;54.302;10.128;2023-06-22T11:47:18;31.10;99.90
15707;DHT22;7953;54.302;10.128;2023-06-22T11:49:45;31.40;99.90
15707;DHT22;7953;54.302;10.128;2023-06-22T11:52:12;31.70;99.90
15707;DHT22;7953;54.302;10.128;2023-06-22T11:54:39;31.80;99.90
15707;DHT22;7953;54.302;10.128;2023-06-22T11:57:07;32.10;99.90
15707;DHT22;7953;54.302;10.128;2023-06-22T11:59:34;32.40;99.90
15707;DHT22;7953;54.302;10.128;2023-06-22T12:02:01;32.50;99.90
15707;DHT22;7953;54.302;10.128;2023-06-22T12:04:29;32.80;99.90
15707;DHT22;7953;54.302;10.128;2023-06-22T12:06:56;32.90;99.90
15707;DHT22;7953;54.302;10.128;2023-06-22T12:09:24;33.10;99.90
15707;DHT22;7953;54.302;10.128;2023-06-22T12:11:50;33.20;99.90
15707;DHT22;7953;54.302;10.128;2023-06-22T12:14:19;33.30;99.90
15707;DHT22;7953;54.302;10.128;2023-06-22T12:16:46;33.40;99.90
15707;DHT22;7953;54.302;10.128;2023-06-22T12:19:12;33.60;99.90
15707;DHT22;7953;54.302;10.128;2023-06-22T12:21:39;33.70;99.90
15707;DHT22;7953;54.302;10.128;2023-06-22T12:24:07;33.70;99.90
15707;DHT22;7953;54.302;10.128;2023-06-22T12:26:33;33.80;99.90
15707;DHT22;7953;54.302;10.128;2023-06-22T12:29:00;33.80;99.90
15707;DHT22;7953;54.302;10.128;2023-06-22T12:31:28;33.60;99.90
15707;DHT22;7953;54.302;10.128;2023-06-22T12:33:55;33.10;99.90
15707;DHT22;7953;54.302;10.128;2023-06-22T12:36:22;32.50;99.90
15707;DHT22;7953;54.302;10.128;2023-06-22T12:38:50;32.20;99.90
15707;DHT22;7953;54.302;10.128;2023-06-22T12:41:17;32.10;99.90
15707;DHT22;7953;54.302;10.128;2023-06-22T12:43:44;32.10;99.90
15707;DHT22;7953;54.302;10.128;2023-06-22T12:46:11;31.80;99.90
15707;DHT22;7953;54.302;10.128;2023-06-22T12:48:39;31.60;99.90
15707;DHT22;7953;54.302;10.128;2023-06-22T12:51:08;31.50;99.90
15707;DHT22;7953;54.302;10.128;2023-06-22T12:53:35;31.70;99.90
15707;DHT22;7953;54.302;10.128;2023-06-22T12:56:02;31.90;99.90
15707;DHT22;7953;54.302;10.128;2023-06-22T12:58:29;32.10;99.90
15707;DHT22;7953;54.302;10.128;2023-06-22T13:00:56;32.20;99.90
15707;DHT22;7953;54.302;10.128;2023-06-22T13:03:23;32.30;99.90
15707;DHT22;7953;54.302;10.128;2023-06-22T13:05:53;32.30;99.90
15707;DHT22;7953;54.302;10.128;2023-06-22T13:08:20;32.20;99.90
15707;DHT22;7953;54.302;10.128;2023-06-22T13:10:47;32.30;99.90
15707;DHT22;7953;54.302;10.128;2023-06-22T13:13:14;32.10;99.90
15707;DHT22;7953;54.302;10.128;2023-06-22T13:15:41;32.10;99.90
15707;DHT22;7953;54.302;10.128;2023-06-22T13:18:08;32.10;99.90
15707;DHT22;7953;54.302;10.128;2023-06-22T13:20:35;32.00;99.90
15707;DHT22;7953;54.302;10.128;2023-06-22T13:23:03;31.90;99.90
15707;DHT22;7953;54.302;10.128;2023-06-22T13:25:30;31.80;99.90
15707;DHT22;7953;54.302;10.128;2023-06-22T13:27:57;31.70;99.90
15707;DHT22;7953;54.302;10.128;2023-06-22T13:30:24;31.60;99.90
15707;DHT22;7953;54.302;10.128;2023-06-22T13:32:51;31.70;99.90
15707;DHT22;7953;54.302;10.128;2023-06-22T13:35:17;31.90;99.90
15707;DHT22;7953;54.302;10.128;2023-06-22T13:37:44;32.10;99.90
15707;DHT22;7953;54.302;10.128;2023-06-22T13:40:13;32.40;99.90
15707;DHT22;7953;54.302;10.128;2023-06-22T13:42:40;32.60;99.90
15707;DHT22;7953;54.302;10.128;2023-06-22T13:45:08;32.70;99.90
15707;DHT22;7953;54.302;10.128;2023-06-22T13:47:35;32.90;99.90
15707;DHT22;7953;54.302;10.128;2023-06-22T13:50:02;32.90;99.90
15707;DHT22;7953;54.302;10.128;2023-06-22T13:52:29;33.00;99.90
15707;DHT22;7953;54.302;10.128;2023-06-22T13:54:56;33.10;99.90
15707;DHT22;7953;54.302;10.128;2023-06-22T13:57:24;33.20;99.90
15707;DHT22;7953;54.302;10.128;2023-06-22T13:59:51;33.30;99.90
15707;DHT22;7953;54.302;10.128;2023-06-22T14:02:18;33.30;99.90
15707;DHT22;7953;54.302;10.128;2023-06-22T14:04:45;33.40;99.90
15707;DHT22;7953;54.302;10.128;2023-06-22T14:07:12;33.50;99.90
15707;DHT22;7953;54.302;10.128;2023-06-22T14:09:39;33.50;99.90
15707;DHT22;7953;54.302;10.128;2023-06-22T14:12:07;33.60;99.90
15707;DHT22;7953;54.302;10.128;2023-06-22T14:14:35;33.50;99.90
15707;DHT22;7953;54.302;10.128;2023-06-22T14:17:03;33.50;99.90
15707;DHT22;7953;54.302;10.128;2023-06-22T14:19:30;33.40;99.90
15707;DHT22;7953;54.302;10.128;2023-06-22T14:21:57;33.40;99.90
15707;DHT22;7953;54.302;10.128;2023-06-22T14:24:24;33.50;99.90
15707;DHT22;7953;54.302;10.128;2023-06-22T14:26:51;33.60;99.90
15707;DHT22;7953;54.302;10.128;2023-06-22T14:29:18;33.60;99.90
15707;DHT22;7953;54.302;10.128;2023-06-22T14:31:47;33.60;99.90
15707;DHT22;7953;54.302;10.128;2023-06-22T14:34:14;33.60;99.90
15707;DHT22;7953;54.302;10.128;2023-06-22T14:36:42;33.60;99.90
15707;DHT22;7953;54.302;10.128;2023-06-22T14:39:09;33.40;99.90
15707;DHT22;7953;54.302;10.128;2023-06-22T14:41:36;33.10;99.90
15707;DHT22;7953;54.302;10.128;2023-06-22T14:44:03;32.90;99.90
15707;DHT22;7953;54.302;10.128;2023-06-22T14:46:30;32.60;99.90
15707;DHT22;7953;54.302;10.128;2023-06-22T14:48:58;32.30;99.90
15707;DHT22;7953;54.302;10.128;2023-06-22T14:51:25;31.90;99.90
15707;DHT22;7953;54.302;10.128;2023-06-22T14:53:52;31.60;99.90
15707;DHT22;7953;54.302;10.128;2023-06-22T14:56:19;31.30;99.90
15707;DHT22;7953;54.302;10.128;2023-06-22T14:58:46;31.00;99.90
15707;DHT22;7953;54.302;10.128;2023-06-22T15:01:15;30.90;99.90
15707;DHT22;7953;54.302;10.128;2023-06-22T15:03:43;30.80;99.90
15707;DHT22;7953;54.302;10.128;2023-06-22T15:06:11;30.70;99.90
15707;DHT22;7953;54.302;10.128;2023-06-22T15:08:39;30.70;99.90
15707;DHT22;7953;54.302;10.128;2023-06-22T15:11:06;30.70;99.90
15707;DHT22;7953;54.302;10.128;2023-06-22T15:13:33;30.70;99.90
15707;DHT22;7953;54.302;10.128;2023-06-22T15:16:01;30.80;99.90
15707;DHT22;7953;54.302;10.128;2023-06-22T15:18:29;30.90;99.90
15707;DHT22;7953;54.302;10.128;2023-06-22T15:20:56;31.00;99.90
15707;DHT22;7953;54.302;10.128;2023-06-22T15:23:25;31.10;99.90
15707;DHT22;7953;54.302;10.128;2023-06-22T15:25:54;31.20;99.90
15707;DHT22;7953;54.302;10.128;2023-06-22T15:28:21;31.30;99.90
15707;DHT22;7953;54.302;10.128;2023-06-22T15:30:48;31.40;99.90
15707;DHT22;7953;54.302;10.128;2023-06-22T15:33:15;31.30;99.90
15707;DHT22;7953;54.302;10.128;2023-06-22T15:35:43;31.20;99.90